Time;durP1;ratioP1;P1;durP2;ratioP2;P2;SDS_P1;SDS_P2;PMS_P1;PMS_P2;Temp;Humidity;BMP_temperature;BMP_pressure;BME280_temperature;BME280_humidity;BME280_pressure;Samples;Min_cycle;Max_cycle;Signal;HPM_P1;HPM_P2
2021/07/31 00:01:13;;;;;;;1999.90;999.90;;;20.10;66.90;;;;;;4883093;29;20199;-81
2021/07/31 00:03:39;;;;;;;1999.90;999.90;;;20.10;67.30;;;;;;4884133;29;20400;-81
2021/07/31 00:06:06;;;;;;;1999.90;999.90;;;20.10;66.30;;;;;;4883638;29;20431;-80
2021/07/31 00:08:32;;;;;;;1999.90;999.90;;;20.00;68.20;;;;;;4882595;29;20522;-81
2021/07/31 00:11:01;;;;;;;1999.90;999.90;;;19.80;70.80;;;;;;4884735;29;20425;-81
2021/07/31 00:13:28;;;;;;;1999.90;999.90;;;19.90;71.80;;;;;;4883211;29;20489;-81
2021/07/31 00:15:53;;;;;;;1999.90;999.90;;;19.90;72.80;;;;;;4883887;29;20515;-81
2021/07/31 00:18:19;;;;;;;1999.90;999.90;;;19.90;73.30;;;;;;4883698;29;20882;-81
2021/07/31 00:20:45;;;;;;;1999.90;999.90;;;19.80;73.90;;;;;;4884441;29;20175;-81
2021/07/31 00:23:11;;;;;;;1999.90;999.90;;;19.80;72.60;;;;;;4884270;29;20171;-81
2021/07/31 00:25:37;;;;;;;1999.90;999.90;;;19.80;72.50;;;;;;4884192;29;20604;-80
2021/07/31 00:28:03;;;;;;;1999.90;999.90;;;19.70;73.70;;;;;;4882254;29;20568;-80
2021/07/31 00:30:29;;;;;;;1999.90;999.90;;;19.70;76.10;;;;;;4882590;29;20423;-81
2021/07/31 00:32:56;;;;;;;1999.90;999.90;;;19.60;76.20;;;;;;4883889;29;20436;-81
2021/07/31 00:35:22;;;;;;;1999.90;999.90;;;19.50;79.20;;;;;;4898605;29;20183;-81
2021/07/31 00:37:47;;;;;;;1999.90;999.90;;;19.50;78.00;;;;;;4884051;29;20454;-81
2021/07/31 00:40:13;;;;;;;1999.90;999.90;;;19.50;78.30;;;;;;4883587;29;20912;-81
2021/07/31 00:42:41;;;;;;;1999.90;999.90;;;19.50;78.10;;;;;;4881691;29;20170;-81
2021/07/31 00:45:09;;;;;;;1999.90;999.90;;;19.50;80.20;;;;;;4883426;29;20501;-81
2021/07/31 00:47:34;;;;;;;1999.90;999.90;;;19.50;80.70;;;;;;4883848;29;20437;-81
2021/07/31 00:50:01;;;;;;;1999.90;999.90;;;19.60;80.40;;;;;;4897956;29;20515;-81
2021/07/31 00:52:27;;;;;;;1999.90;999.90;;;19.60;80.50;;;;;;4883276;29;20418;-81
2021/07/31 00:54:55;;;;;;;1999.90;999.90;;;19.60;80.50;;;;;;4884339;29;20411;-81
2021/07/31 00:57:22;;;;;;;1999.90;999.90;;;19.70;79.70;;;;;;4882212;29;20512;-81
2021/07/31 00:59:49;;;;;;;1999.90;999.90;;;19.60;80.90;;;;;;4883441;29;20463;-81
2021/07/31 01:02:15;;;;;;;1999.90;999.90;;;19.50;81.50;;;;;;4882418;29;20933;-81
2021/07/31 01:04:41;;;;;;;1999.90;999.90;;;19.50;82.00;;;;;;4883017;29;20502;-80
2021/07/31 01:07:07;;;;;;;1999.90;999.90;;;19.50;82.20;;;;;;4881923;29;20443;-81
2021/07/31 01:09:33;;;;;;;1999.90;999.90;;;19.40;83.10;;;;;;4882198;29;20202;-81
2021/07/31 01:11:59;;;;;;;1999.90;999.90;;;19.50;83.60;;;;;;4882593;29;20459;-81
2021/07/31 01:14:25;;;;;;;1999.90;999.90;;;19.40;84.50;;;;;;4883285;29;20422;-81
2021/07/31 01:16:50;;;;;;;1999.90;999.90;;;19.30;85.50;;;;;;4882369;29;20195;-81
2021/07/31 01:19:16;;;;;;;1999.90;999.90;;;19.20;87.20;;;;;;4897536;29;20178;-81
2021/07/31 01:21:44;;;;;;;1999.90;999.90;;;19.10;88.20;;;;;;4881748;29;20178;-81
2021/07/31 01:24:15;;;;;;;1999.90;999.90;;;19.10;90.00;;;;;;4882570;29;20170;-81
2021/07/31 01:26:45;;;;;;;1999.90;999.90;;;19.30;89.50;;;;;;4882224;29;20419;-81
2021/07/31 01:29:13;;;;;;;1999.90;999.90;;;19.10;90.10;;;;;;4881729;29;20777;-81
2021/07/31 01:31:39;;;;;;;1999.90;999.90;;;19.20;90.10;;;;;;4883257;29;20760;-81
2021/07/31 01:34:05;;;;;;;1999.90;999.90;;;19.30;90.10;;;;;;4896716;29;20439;-81
2021/07/31 01:36:31;;;;;;;1999.90;999.90;;;19.20;89.50;;;;;;4882362;29;20947;-81
2021/07/31 01:38:58;;;;;;;1999.90;999.90;;;19.10;90.10;;;;;;4882020;29;20203;-81
2021/07/31 01:41:24;;;;;;;1999.90;999.90;;;19.10;90.60;;;;;;4882137;29;20409;-81
2021/07/31 01:43:50;;;;;;;1999.90;999.90;;;19.20;90.50;;;;;;4881331;29;20407;-81
2021/07/31 01:46:16;;;;;;;1999.90;999.90;;;19.20;89.70;;;;;;4882382;29;20427;-81
2021/07/31 01:48:42;;;;;;;1999.90;999.90;;;19.20;90.40;;;;;;4882250;29;20474;-81
2021/07/31 01:51:08;;;;;;;1999.90;999.90;;;19.20;90.40;;;;;;4881120;29;20415;-81
2021/07/31 01:53:34;;;;;;;1999.90;999.90;;;19.10;91.00;;;;;;4882404;29;20790;-81
2021/07/31 01:56:00;;;;;;;1999.90;999.90;;;19.10;91.10;;;;;;4882449;29;20534;-81
2021/07/31 01:58:25;;;;;;;1999.90;999.90;;;19.10;92.30;;;;;;4881852;29;20620;-81
2021/07/31 02:00:55;;;;;;;1999.90;999.90;;;19.10;91.80;;;;;;4881981;29;20257;-81
2021/07/31 02:03:21;;;;;;;1999.90;999.90;;;19.10;92.60;;;;;;4880591;29;20179;-81
2021/07/31 02:05:48;;;;;;;1999.90;999.90;;;19.00;92.60;;;;;;4881497;29;20502;-81
2021/07/31 02:08:14;;;;;;;1999.90;999.90;;;19.20;91.90;;;;;;4881827;29;20407;-81
2021/07/31 02:10:39;;;;;;;1999.90;999.90;;;19.10;92.20;;;;;;4880530;29;20882;-81
2021/07/31 02:13:05;;;;;;;1999.90;999.90;;;19.10;91.80;;;;;;4881729;29;20408;-81
2021/07/31 02:15:31;;;;;;;1999.90;999.90;;;19.10;91.80;;;;;;4881538;29;20254;-81
2021/07/31 02:17:57;;;;;;;1999.90;999.90;;;19.00;92.50;;;;;;4881734;29;20672;-81
2021/07/31 02:20:23;;;;;;;1999.90;999.90;;;18.90;93.00;;;;;;4881648;29;20167;-81
2021/07/31 02:22:49;;;;;;;1999.90;999.90;;;18.80;94.00;;;;;;4882409;29;20411;-81
2021/07/31 02:25:15;;;;;;;1999.90;999.90;;;18.80;94.30;;;;;;4882062;29;20403;-81
2021/07/31 02:27:41;;;;;;;1999.90;999.90;;;18.90;93.90;;;;;;4881880;29;20446;-81
2021/07/31 02:30:07;;;;;;;1999.90;999.90;;;18.80;94.60;;;;;;4882076;29;20230;-81
2021/07/31 02:32:32;;;;;;;1999.90;999.90;;;18.90;94.60;;;;;;4882113;29;20250;-81
2021/07/31 02:34:58;;;;;;;1999.90;999.90;;;18.90;94.30;;;;;;4881770;29;20833;-81
2021/07/31 02:37:24;;;;;;;1999.90;999.90;;;18.90;93.90;;;;;;4881794;29;20225;-81
2021/07/31 02:39:49;;;;;;;1999.90;999.90;;;18.80;94.20;;;;;;4881558;29;20162;-81
2021/07/31 02:42:16;;;;;;;1999.90;999.90;;;18.80;94.80;;;;;;4881453;29;20163;-81
2021/07/31 02:44:41;;;;;;;1999.90;999.90;;;18.80;94.70;;;;;;4880304;29;20175;-81
2021/07/31 02:47:07;;;;;;;1999.90;999.90;;;18.90;94.40;;;;;;4880481;29;20521;-81
2021/07/31 02:49:33;;;;;;;1999.90;999.90;;;18.80;94.20;;;;;;4881393;29;20171;-81
2021/07/31 02:51:58;;;;;;;1999.90;999.90;;;18.70;95.50;;;;;;4880765;29;20262;-81
2021/07/31 02:54:25;;;;;;;1999.90;999.90;;;18.70;95.10;;;;;;4881559;29;20178;-82
2021/07/31 02:56:51;;;;;;;1999.90;999.90;;;18.70;95.00;;;;;;4881511;29;20198;-81
2021/07/31 02:59:16;;;;;;;1999.90;999.90;;;18.60;95.70;;;;;;4881532;29;20407;-81
2021/07/31 03:01:42;;;;;;;1999.90;999.90;;;18.60;95.80;;;;;;4881810;29;20428;-81
2021/07/31 03:04:07;;;;;;;1999.90;999.90;;;18.70;95.30;;;;;;4880781;29;20203;-81
2021/07/31 03:06:33;;;;;;;1999.90;999.90;;;18.70;95.30;;;;;;4881634;29;20225;-81
2021/07/31 03:08:59;;;;;;;1999.90;999.90;;;18.70;95.60;;;;;;4881954;29;20171;-81
2021/07/31 03:11:24;;;;;;;1999.90;999.90;;;18.80;95.60;;;;;;4881669;29;20178;-81
2021/07/31 03:13:50;;;;;;;1999.90;999.90;;;18.60;96.50;;;;;;4880170;29;20185;-81
2021/07/31 03:16:16;;;;;;;1999.90;999.90;;;18.70;96.00;;;;;;4881590;29;20243;-81
2021/07/31 03:18:42;;;;;;;1999.90;999.90;;;18.70;96.10;;;;;;4882161;29;20223;-81
2021/07/31 03:21:10;;;;;;;1999.90;999.90;;;18.70;95.90;;;;;;4881818;29;20248;-81
2021/07/31 03:23:36;;;;;;;1999.90;999.90;;;18.60;96.00;;;;;;4881907;29;20404;-81
2021/07/31 03:26:02;;;;;;;1999.90;999.90;;;18.70;96.10;;;;;;4881759;29;20495;-81
2021/07/31 03:28:29;;;;;;;1999.90;999.90;;;18.70;96.20;;;;;;4949507;23;20226;-81
2021/07/31 03:30:55;;;;;;;1999.90;999.90;;;18.80;95.90;;;;;;4890791;29;20412;-81
2021/07/31 03:33:21;;;;;;;1999.90;999.90;;;18.80;95.70;;;;;;4888642;29;20410;-81
2021/07/31 03:35:47;;;;;;;1999.90;999.90;;;18.70;95.80;;;;;;4888032;29;20403;-81
2021/07/31 03:38:13;;;;;;;1999.90;999.90;;;18.60;96.30;;;;;;4890136;29;20954;-81
2021/07/31 03:40:38;;;;;;;1999.90;999.90;;;18.60;96.60;;;;;;4887420;29;20246;-81
2021/07/31 03:43:05;;;;;;;1999.90;999.90;;;18.60;96.60;;;;;;4887051;29;20590;-81
2021/07/31 03:45:30;;;;;;;1999.90;999.90;;;18.50;96.60;;;;;;4887667;29;20775;-81
2021/07/31 03:47:56;;;;;;;1999.90;999.90;;;18.50;97.30;;;;;;4887078;29;20415;-81
2021/07/31 03:50:24;;;;;;;1999.90;999.90;;;18.50;96.90;;;;;;4888496;29;20173;-81
2021/07/31 03:52:50;;;;;;;1999.90;999.90;;;18.60;96.80;;;;;;4887184;29;20543;-81
2021/07/31 03:55:16;;;;;;;1999.90;999.90;;;18.60;96.80;;;;;;4887588;29;20419;-81
2021/07/31 03:57:41;;;;;;;1999.90;999.90;;;18.60;96.70;;;;;;4887269;29;20313;-81
2021/07/31 04:00:07;;;;;;;1999.90;999.90;;;18.70;96.90;;;;;;4889283;29;20163;-81
2021/07/31 04:02:33;;;;;;;1999.90;999.90;;;18.60;97.00;;;;;;4888599;29;20163;-81
2021/07/31 04:04:59;;;;;;;1999.90;999.90;;;18.60;97.00;;;;;;4887385;29;20407;-81
2021/07/31 04:07:25;;;;;;;1999.90;999.90;;;18.60;96.40;;;;;;4886765;29;20513;-81
2021/07/31 04:09:52;;;;;;;1999.90;999.90;;;18.50;97.00;;;;;;4890202;29;20440;-79
2021/07/31 04:12:17;;;;;;;1999.90;999.90;;;18.50;97.20;;;;;;4888162;29;20203;-79
2021/07/31 04:14:43;;;;;;;1999.90;999.90;;;18.50;97.30;;;;;;4900659;29;20419;-78
2021/07/31 04:17:11;;;;;;;1999.90;999.90;;;18.50;97.50;;;;;;4884028;29;20198;-78
2021/07/31 04:19:37;;;;;;;1999.90;999.90;;;18.50;97.90;;;;;;4900092;29;20428;-79
2021/07/31 04:22:03;;;;;;;1999.90;999.90;;;18.50;97.90;;;;;;4886590;29;20419;-79
2021/07/31 04:24:29;;;;;;;1999.90;999.90;;;18.60;97.20;;;;;;4884368;29;20412;-78
2021/07/31 04:26:54;;;;;;;1999.90;999.90;;;18.60;97.40;;;;;;4898216;29;20506;-78
2021/07/31 04:29:20;;;;;;;1999.90;999.90;;;18.60;97.50;;;;;;4883398;29;20193;-78
2021/07/31 04:31:47;;;;;;;1999.90;999.90;;;18.50;98.40;;;;;;4883455;29;20648;-78
2021/07/31 04:34:12;;;;;;;1999.90;999.90;;;18.50;98.70;;;;;;4883132;29;20446;-78
2021/07/31 04:36:38;;;;;;;1999.90;999.90;;;18.50;98.90;;;;;;4883981;29;20502;-78
2021/07/31 04:39:05;;;;;;;1999.90;999.90;;;18.50;98.90;;;;;;4883522;29;20297;-78
2021/07/31 04:41:31;;;;;;;1999.90;999.90;;;18.50;99.00;;;;;;4882978;29;20792;-79
2021/07/31 04:43:57;;;;;;;1999.90;999.90;;;18.60;99.10;;;;;;4898606;29;20416;-78
2021/07/31 04:46:23;;;;;;;1999.90;999.90;;;18.60;99.10;;;;;;4883202;29;20434;-78
2021/07/31 04:48:48;;;;;;;1999.90;999.90;;;18.60;99.40;;;;;;4882885;29;20227;-78
2021/07/31 04:51:14;;;;;;;1999.90;999.90;;;18.50;99.90;;;;;;4881051;29;20171;-78
2021/07/31 04:53:40;;;;;;;1999.90;999.90;;;18.50;99.90;;;;;;4882967;29;20227;-78
2021/07/31 04:56:06;;;;;;;1999.90;999.90;;;18.60;99.90;;;;;;4882936;29;20451;-79
2021/07/31 04:58:32;;;;;;;1999.90;999.90;;;18.70;99.40;;;;;;4882404;29;20451;-78
2021/07/31 05:01:01;;;;;;;1999.90;999.90;;;18.80;99.50;;;;;;4882304;29;20178;-78
2021/07/31 05:03:28;;;;;;;1999.90;999.90;;;18.90;99.30;;;;;;4883084;29;20410;-79
2021/07/31 05:05:54;;;;;;;1999.90;999.90;;;19.00;98.90;;;;;;4882131;29;20844;-79
2021/07/31 05:08:19;;;;;;;1999.90;999.90;;;18.90;99.90;;;;;;4883163;29;20470;-79
2021/07/31 05:10:47;;;;;;;1999.90;999.90;;;19.00;99.30;;;;;;4882616;29;20633;-78
2021/07/31 05:13:14;;;;;;;1999.90;999.90;;;18.90;99.80;;;;;;4883392;29;20174;-79
2021/07/31 05:15:41;;;;;;;1999.90;999.90;;;18.80;99.90;;;;;;4883381;29;20423;-79
2021/07/31 05:18:08;;;;;;;1999.90;999.90;;;18.80;99.90;;;;;;4883582;29;20556;-79
2021/07/31 05:20:34;;;;;;;1999.90;999.90;;;18.70;99.90;;;;;;4883907;29;20411;-79
2021/07/31 05:23:00;;;;;;;1999.90;999.90;;;18.70;99.90;;;;;;4883622;29;20451;-79
2021/07/31 05:25:27;;;;;;;1999.90;999.90;;;18.70;99.90;;;;;;4884573;29;20498;-79
2021/07/31 05:27:52;;;;;;;1999.90;999.90;;;18.70;99.90;;;;;;4883392;29;20438;-79
2021/07/31 05:30:19;;;;;;;1999.90;999.90;;;18.80;99.90;;;;;;4883782;29;20986;-79
2021/07/31 05:32:44;;;;;;;1999.90;999.90;;;18.80;99.90;;;;;;4883883;29;20673;-79
2021/07/31 05:35:10;;;;;;;1999.90;999.90;;;18.80;99.90;;;;;;4883805;29;20506;-79
2021/07/31 05:37:36;;;;;;;1999.90;999.90;;;18.80;99.90;;;;;;4883812;29;20199;-79
2021/07/31 05:40:04;;;;;;;1999.90;999.90;;;18.80;99.90;;;;;;4884664;29;20508;-79
2021/07/31 05:42:29;;;;;;;1999.90;999.90;;;18.80;99.90;;;;;;4883606;29;20257;-79
2021/07/31 05:45:03;;;;;;;1999.90;999.90;;;18.80;99.90;;;;;;4884923;29;20431;-79
2021/07/31 05:47:29;;;;;;;1999.90;999.90;;;18.70;99.90;;;;;;4883550;29;20201;-79
2021/07/31 05:49:59;;;;;;;1999.90;999.90;;;18.80;99.90;;;;;;4883602;29;20411;-79
2021/07/31 05:52:26;;;;;;;1999.90;999.90;;;18.80;99.90;;;;;;4882267;29;20407;-79
2021/07/31 05:54:56;;;;;;;1999.90;999.90;;;18.90;99.90;;;;;;4883103;29;20443;-79
2021/07/31 05:57:22;;;;;;;1999.90;999.90;;;19.00;99.90;;;;;;4883249;29;20486;-79
2021/07/31 05:59:48;;;;;;;1999.90;999.90;;;19.00;99.90;;;;;;4897479;29;20490;-79
2021/07/31 06:02:14;;;;;;;1999.90;999.90;;;18.90;99.90;;;;;;4882974;29;20494;-79
2021/07/31 06:04:40;;;;;;;1999.90;999.90;;;19.00;99.90;;;;;;4882744;29;20407;-79
2021/07/31 06:07:07;;;;;;;1999.90;999.90;;;19.00;99.90;;;;;;4883072;29;20431;-79
2021/07/31 06:09:34;;;;;;;1999.90;999.90;;;18.90;99.90;;;;;;4881753;29;20493;-79
2021/07/31 06:12:00;;;;;;;1999.90;999.90;;;18.90;99.90;;;;;;4896853;29;20430;-79
2021/07/31 06:14:26;;;;;;;1999.90;999.90;;;18.90;99.90;;;;;;4883294;29;20411;-79
2021/07/31 06:16:51;;;;;;;1999.90;999.90;;;19.00;99.90;;;;;;4882735;29;20930;-79
2021/07/31 06:19:17;;;;;;;1999.90;999.90;;;19.00;99.90;;;;;;4882976;29;20414;-79
2021/07/31 06:21:43;;;;;;;1999.90;999.90;;;19.00;99.90;;;;;;4884645;29;20662;-78
2021/07/31 06:24:09;;;;;;;1999.90;999.90;;;18.80;99.90;;;;;;4884375;29;20177;-79
2021/07/31 06:26:35;;;;;;;1999.90;999.90;;;18.90;99.90;;;;;;4884136;29;20666;-79
2021/07/31 06:29:01;;;;;;;1999.90;999.90;;;18.90;99.90;;;;;;4895546;29;20454;-78
2021/07/31 06:31:26;;;;;;;1999.90;999.90;;;18.90;99.90;;;;;;4880338;29;20174;-79
2021/07/31 06:33:52;;;;;;;1999.90;999.90;;;18.70;99.90;;;;;;4882206;29;20243;-78
2021/07/31 06:36:19;;;;;;;1999.90;999.90;;;18.70;99.90;;;;;;4881721;29;20218;-79
2021/07/31 06:38:45;;;;;;;1999.90;999.90;;;18.70;99.90;;;;;;4883066;29;20206;-79
2021/07/31 06:41:11;;;;;;;1999.90;999.90;;;18.80;99.90;;;;;;4879982;29;20423;-78
2021/07/31 06:43:37;;;;;;;1999.90;999.90;;;18.90;99.90;;;;;;4880997;29;20956;-79
2021/07/31 06:46:12;;;;;;;1999.90;999.90;;;18.80;99.90;;;;;;4881019;29;20230;-78
2021/07/31 06:48:38;;;;;;;1999.90;999.90;;;18.80;99.90;;;;;;4881566;29;20253;-78
2021/07/31 06:51:05;;;;;;;1999.90;999.90;;;18.90;99.90;;;;;;4882092;29;20983;-79
2021/07/31 06:53:30;;;;;;;1999.90;999.90;;;18.90;99.90;;;;;;4881529;29;20415;-78
2021/07/31 06:56:00;;;;;;;1999.90;999.90;;;18.90;99.90;;;;;;4881051;29;20443;-78
2021/07/31 06:58:25;;;;;;;1999.90;999.90;;;19.00;99.90;;;;;;4881767;29;20206;-78
2021/07/31 07:00:51;;;;;;;1999.90;999.90;;;19.10;99.90;;;;;;4881780;29;20430;-79
2021/07/31 07:03:17;;;;;;;1999.90;999.90;;;19.20;99.90;;;;;;4884918;29;20459;-78
2021/07/31 07:05:43;;;;;;;1999.90;999.90;;;19.40;99.90;;;;;;4886050;29;20493;-79
2021/07/31 07:08:09;;;;;;;1999.90;999.90;;;19.40;99.90;;;;;;4885867;29;20406;-79
2021/07/31 07:10:34;;;;;;;1999.90;999.90;;;19.50;99.90;;;;;;4885092;29;20179;-79
2021/07/31 07:13:00;;;;;;;1999.90;999.90;;;19.50;99.90;;;;;;4883762;29;20171;-79
2021/07/31 07:15:28;;;;;;;1999.90;999.90;;;19.50;99.90;;;;;;4885139;29;20230;-78
2021/07/31 07:17:57;;;;;;;1999.90;999.90;;;19.50;99.90;;;;;;4898347;29;20202;-78
2021/07/31 07:20:24;;;;;;;1999.90;999.90;;;19.50;99.90;;;;;;4885444;29;20949;-78
2021/07/31 07:22:49;;;;;;;1999.90;999.90;;;19.60;99.90;;;;;;4884589;29;20495;-78
2021/07/31 07:25:15;;;;;;;1999.90;999.90;;;19.70;99.90;;;;;;4884267;29;20883;-78
2021/07/31 07:27:41;;;;;;;1999.90;999.90;;;19.70;99.90;;;;;;4883381;29;20213;-78
2021/07/31 07:30:07;;;;;;;1999.90;999.90;;;19.60;99.90;;;;;;4883395;29;20230;-79
2021/07/31 07:32:36;;;;;;;1999.90;999.90;;;19.70;99.90;;;;;;4883941;29;20186;-78
2021/07/31 07:35:03;;;;;;;1999.90;999.90;;;19.50;99.90;;;;;;4883857;29;20844;-78
2021/07/31 07:37:29;;;;;;;1999.90;999.90;;;19.50;99.90;;;;;;4884168;29;20519;-78
2021/07/31 07:39:54;;;;;;;1999.90;999.90;;;19.50;99.90;;;;;;4883940;29;20416;-78
2021/07/31 07:42:20;;;;;;;1999.90;999.90;;;19.50;99.90;;;;;;4883751;29;20242;-78
2021/07/31 07:44:46;;;;;;;1999.90;999.90;;;19.60;99.90;;;;;;4883733;29;20179;-78
2021/07/31 07:47:11;;;;;;;1999.90;999.90;;;19.60;99.90;;;;;;4883439;29;20222;-78
2021/07/31 07:49:38;;;;;;;1999.90;999.90;;;19.70;99.90;;;;;;4883013;29;20174;-78
2021/07/31 07:52:04;;;;;;;1999.90;999.90;;;19.60;99.90;;;;;;4883597;29;20226;-78
2021/07/31 07:54:30;;;;;;;1999.90;999.90;;;19.60;99.50;;;;;;4884632;29;20411;-78
2021/07/31 07:56:59;;;;;;;1999.90;999.90;;;19.50;99.90;;;;;;4885383;29;20791;-79
2021/07/31 07:59:24;;;;;;;1999.90;999.90;;;19.50;99.90;;;;;;4886666;29;20942;-78
2021/07/31 08:01:50;;;;;;;1999.90;999.90;;;19.60;99.90;;;;;;4885572;29;20408;-79
2021/07/31 08:04:16;;;;;;;1999.90;999.90;;;19.60;99.90;;;;;;4885956;29;20167;-79
2021/07/31 08:06:42;;;;;;;1999.90;999.90;;;19.60;99.90;;;;;;4889957;29;20198;-79
2021/07/31 08:09:08;;;;;;;1999.90;999.90;;;19.70;99.90;;;;;;4891502;29;20904;-79
2021/07/31 08:11:34;;;;;;;1999.90;999.90;;;19.70;99.90;;;;;;4891716;29;20490;-79
2021/07/31 08:14:00;;;;;;;1999.90;999.90;;;19.80;99.90;;;;;;4889259;29;20185;-78
2021/07/31 08:16:26;;;;;;;1999.90;999.90;;;19.90;99.90;;;;;;4890046;29;20187;-78
2021/07/31 08:18:52;;;;;;;1999.90;999.90;;;20.00;99.90;;;;;;4888173;29;20455;-78
2021/07/31 08:21:18;;;;;;;1999.90;999.90;;;20.10;99.70;;;;;;4887688;29;20419;-78
2021/07/31 08:23:44;;;;;;;1999.90;999.90;;;20.10;99.80;;;;;;4887621;29;20203;-79
2021/07/31 08:26:12;;;;;;;1999.90;999.90;;;20.10;98.50;;;;;;4889899;29;20190;-79
2021/07/31 08:28:45;;;;;;;1999.90;999.90;;;20.30;96.70;;;;;;4890236;29;20458;-78
2021/07/31 08:31:11;;;;;;;1999.90;999.90;;;20.30;97.10;;;;;;4892077;29;20415;-78
2021/07/31 08:33:37;;;;;;;1999.90;999.90;;;20.30;97.20;;;;;;4888835;29;20419;-78
2021/07/31 08:36:05;;;;;;;1999.90;999.90;;;20.20;97.80;;;;;;4889551;29;20931;-78
2021/07/31 08:38:30;;;;;;;1999.90;999.90;;;20.10;98.40;;;;;;4886401;29;20519;-80
2021/07/31 08:40:56;;;;;;;1999.90;999.90;;;20.10;98.80;;;;;;4885862;29;20421;-79
2021/07/31 08:43:22;;;;;;;1999.90;999.90;;;20.10;98.80;;;;;;4869886;29;20171;-82
2021/07/31 08:45:49;;;;;;;1999.90;999.90;;;20.10;98.50;;;;;;4886216;29;20983;-82
2021/07/31 08:48:15;;;;;;;1999.90;999.90;;;20.00;98.90;;;;;;4885186;29;20698;-82
2021/07/31 08:50:42;;;;;;;1999.90;999.90;;;20.00;99.90;;;;;;4885081;29;20418;-82
2021/07/31 08:53:08;;;;;;;1999.90;999.90;;;20.00;99.90;;;;;;4885996;29;20435;-82
2021/07/31 08:55:34;;;;;;;1999.90;999.90;;;20.00;99.90;;;;;;4885852;29;20411;-82
2021/07/31 08:58:00;;;;;;;1999.90;999.90;;;20.10;99.90;;;;;;4884926;29;20447;-82
2021/07/31 09:00:26;;;;;;;1999.90;999.90;;;20.20;99.90;;;;;;4882992;29;20199;-82
2021/07/31 09:02:52;;;;;;;1999.90;999.90;;;20.30;99.90;;;;;;4885001;29;20463;-82
2021/07/31 09:05:35;;;;;;;1999.90;999.90;;;20.50;99.90;;;;;;4885131;29;20585;-82
2021/07/31 09:08:05;;;;;;;1999.90;999.90;;;20.50;99.00;;;;;;4884793;29;20221;-82
2021/07/31 09:10:33;;;;;;;1999.90;999.90;;;20.50;98.70;;;;;;4884875;29;20502;-82
2021/07/31 09:13:01;;;;;;;1999.90;999.90;;;20.60;99.20;;;;;;4899405;29;20498;-81
2021/07/31 09:15:47;;;;;;;1999.90;999.90;;;20.60;99.20;;;;;;4884481;29;20928;-82
2021/07/31 09:18:35;;;;;;;1999.90;999.90;;;20.60;99.90;;;;;;4884899;29;20862;-81
2021/07/31 09:21:16;;;;;;;1999.90;999.90;;;20.70;99.90;;;;;;4884989;29;20426;-82
2021/07/31 09:23:48;;;;;;;1999.90;999.90;;;20.70;99.90;;;;;;4884781;29;20392;-82
2021/07/31 09:26:21;;;;;;;1999.90;999.90;;;21.00;99.90;;;;;;4884069;29;20443;-81
2021/07/31 09:29:09;;;;;;;1999.90;999.90;;;21.10;94.10;;;;;;4949195;23;20500;-81
2021/07/31 09:31:49;;;;;;;1999.90;999.90;;;21.20;96.10;;;;;;4876134;29;20415;-81
2021/07/31 09:34:30;;;;;;;1999.90;999.90;;;21.30;96.30;;;;;;4846412;29;20400;-80
2021/07/31 09:37:08;;;;;;;1999.90;999.90;;;21.20;91.80;;;;;;4845909;29;20434;-80
2021/07/31 09:39:57;;;;;;;1999.90;999.90;;;21.00;91.60;;;;;;4847534;29;20501;-81
2021/07/31 09:42:41;;;;;;;1999.90;999.90;;;20.90;93.30;;;;;;4845585;29;20497;-81
2021/07/31 09:45:08;;;;;;;1999.90;999.90;;;20.80;94.20;;;;;;4845991;29;20408;-80
2021/07/31 09:47:35;;;;;;;1999.90;999.90;;;20.80;95.00;;;;;;4846125;29;20431;-81
2021/07/31 09:50:01;;;;;;;1999.90;999.90;;;20.70;95.20;;;;;;4846765;29;20419;-81
2021/07/31 09:52:28;;;;;;;1999.90;999.90;;;20.70;95.60;;;;;;4846532;29;20909;-80
2021/07/31 09:54:57;;;;;;;1999.90;999.90;;;20.90;95.50;;;;;;4846467;29;20703;-80
2021/07/31 09:57:28;;;;;;;1999.90;999.90;;;21.00;96.30;;;;;;4845345;29;20997;-80
2021/07/31 09:59:57;;;;;;;1999.90;999.90;;;21.30;95.90;;;;;;4846166;29;20503;-81
2021/07/31 10:02:44;;;;;;;1999.90;999.90;;;21.50;92.40;;;;;;4846982;29;20424;-80
2021/07/31 10:05:10;;;;;;;1999.90;999.90;;;21.70;92.10;;;;;;4847108;29;20732;-81
2021/07/31 10:07:40;;;;;;;1999.90;999.90;;;22.00;82.10;;;;;;4845461;29;20451;-79
2021/07/31 10:10:06;;;;;;;1999.90;999.90;;;22.10;77.50;;;;;;4846109;29;20405;-81
2021/07/31 10:12:37;;;;;;;1999.90;999.90;;;22.00;77.20;;;;;;4846372;29;20415;-81
2021/07/31 10:15:04;;;;;;;1999.90;999.90;;;21.90;79.00;;;;;;4860752;29;20409;-80
2021/07/31 10:17:31;;;;;;;1999.90;999.90;;;21.80;83.10;;;;;;4845071;29;20457;-81
2021/07/31 10:19:58;;;;;;;1999.90;999.90;;;21.70;80.60;;;;;;4846643;29;20416;-81
2021/07/31 10:22:48;;;;;;;1999.90;999.90;;;21.70;82.90;;;;;;4847011;29;20404;-80
2021/07/31 10:25:15;;;;;;;1999.90;999.90;;;21.70;78.90;;;;;;4845572;29;20808;-80
2021/07/31 10:27:41;;;;;;;1999.90;999.90;;;21.60;78.20;;;;;;4847076;29;20975;-80
2021/07/31 10:30:34;;;;;;;1999.90;999.90;;;21.50;81.70;;;;;;4847730;29;20413;-79
2021/07/31 10:33:01;;;;;;;1999.90;999.90;;;21.70;88.10;;;;;;4847250;29;20405;-79
2021/07/31 10:35:33;;;;;;;1999.90;999.90;;;22.00;90.60;;;;;;4848668;29;20412;-79
2021/07/31 10:38:05;;;;;;;1999.90;999.90;;;22.20;80.70;;;;;;4850132;29;20440;-80
2021/07/31 10:40:32;;;;;;;1999.90;999.90;;;22.20;75.30;;;;;;4850204;29;20416;-80
2021/07/31 10:42:58;;;;;;;1999.90;999.90;;;22.10;74.70;;;;;;4864624;29;20420;-80
2021/07/31 10:45:33;;;;;;;1999.90;999.90;;;21.70;74.40;;;;;;4849674;29;20416;-80
2021/07/31 10:48:05;;;;;;;1999.90;999.90;;;21.70;75.40;;;;;;4864334;29;20171;-80
2021/07/31 10:50:31;;;;;;;1999.90;999.90;;;22.00;77.30;;;;;;4850171;29;20413;-79
2021/07/31 10:53:08;;;;;;;1999.90;999.90;;;22.30;78.70;;;;;;4864178;29;20493;-78
2021/07/31 10:55:37;;;;;;;1999.90;999.90;;;22.60;63.70;;;;;;4847806;29;20180;-80
2021/07/31 10:58:09;;;;;;;1999.90;999.90;;;22.40;62.00;;;;;;4850504;29;20451;-80
2021/07/31 11:00:34;;;;;;;1999.90;999.90;;;22.20;58.00;;;;;;4849831;29;20479;-80
2021/07/31 11:03:25;;;;;;;1999.90;999.90;;;21.90;65.20;;;;;;4850961;29;20528;-80
2021/07/31 11:06:05;;;;;;;1999.90;999.90;;;21.90;67.70;;;;;;4848501;29;20680;-79
2021/07/31 11:08:35;;;;;;;1999.90;999.90;;;22.20;73.60;;;;;;4851268;29;20408;-79
2021/07/31 11:11:25;;;;;;;1999.90;999.90;;;22.60;73.60;;;;;;4850187;29;20490;-79
2021/07/31 11:13:52;;;;;;;1999.90;999.90;;;23.00;61.70;;;;;;4850011;29;20416;-80
2021/07/31 11:16:22;;;;;;;1999.90;999.90;;;23.20;66.60;;;;;;4850102;29;20543;-80
2021/07/31 11:18:55;;;;;;;1999.90;999.90;;;23.30;55.20;;;;;;4849857;29;20866;-80
2021/07/31 11:21:27;;;;;;;1999.90;999.90;;;23.30;55.70;;;;;;4849056;29;20406;-80
2021/07/31 11:24:01;;;;;;;1999.90;999.90;;;23.20;54.10;;;;;;4850023;29;20424;-80
2021/07/31 11:26:39;;;;;;;1999.90;999.90;;;23.20;50.50;;;;;;4849136;29;20436;-80
2021/07/31 11:29:12;;;;;;;1999.90;999.90;;;23.00;43.90;;;;;;4863657;29;20448;-80
2021/07/31 11:31:39;;;;;;;1999.90;999.90;;;22.60;53.80;;;;;;4849272;29;20428;-81
2021/07/31 11:34:12;;;;;;;1999.90;999.90;;;22.40;57.90;;;;;;4849766;29;20467;-81
2021/07/31 11:36:42;;;;;;;1999.90;999.90;;;22.30;64.90;;;;;;4848302;29;20453;-80
2021/07/31 11:39:10;;;;;;;1999.90;999.90;;;22.50;68.40;;;;;;4849354;29;20459;-80
2021/07/31 11:41:41;;;;;;;1999.90;999.90;;;23.00;70.40;;;;;;4849375;29;20418;-80
2021/07/31 11:44:07;;;;;;;1999.90;999.90;;;23.40;72.60;;;;;;4849741;29;20442;-80
2021/07/31 11:46:34;;;;;;;1999.90;999.90;;;23.60;68.80;;;;;;4848950;29;20433;-80
2021/07/31 11:49:11;;;;;;;1999.90;999.90;;;24.10;57.20;;;;;;4848238;29;20413;-80
2021/07/31 11:51:44;;;;;;;1999.90;999.90;;;24.30;51.00;;;;;;4848965;29;20397;-80
2021/07/31 11:54:11;;;;;;;1999.90;999.90;;;24.20;51.20;;;;;;4849151;29;20413;-81
2021/07/31 11:56:38;;;;;;;1999.90;999.90;;;24.00;49.40;;;;;;4848536;29;20508;-80
2021/07/31 11:59:05;;;;;;;1999.90;999.90;;;24.00;46.00;;;;;;4848343;29;20512;-80
2021/07/31 12:01:32;;;;;;;1999.90;999.90;;;23.80;43.20;;;;;;4848550;29;20420;-79